createdAt,value
2018-12-31T00:01:43.293Z,23.70
2018-12-31T00:04:12.134Z,24.17
2018-12-31T00:06:41.410Z,21.57
2018-12-31T00:09:10.290Z,26.27
2018-12-31T00:11:39.215Z,28.03
2018-12-31T00:14:08.062Z,26.53
2018-12-31T00:16:37.093Z,29.93
2018-12-31T00:19:06.272Z,29.73
2018-12-31T00:21:35.303Z,26.27
2018-12-31T00:24:04.284Z,34.47
2018-12-31T00:26:33.335Z,36.30
2018-12-31T00:29:02.208Z,44.60
2018-12-31T00:31:31.122Z,37.30
2018-12-31T00:33:59.956Z,36.47
2018-12-31T00:36:28.905Z,41.90
2018-12-31T00:38:57.821Z,40.87
2018-12-31T00:41:26.955Z,39.60
2018-12-31T00:43:56.295Z,35.33
2018-12-31T00:46:25.462Z,39.00
2018-12-31T00:48:54.697Z,36.60
2018-12-31T00:51:23.982Z,31.07
2018-12-31T00:53:53.126Z,32.57
2018-12-31T00:56:22.014Z,27.20
2018-12-31T00:58:51.047Z,30.63
2018-12-31T01:01:20.149Z,37.40
2018-12-31T01:03:48.965Z,34.40
2018-12-31T01:06:17.961Z,29.93
2018-12-31T01:08:46.844Z,34.50
2018-12-31T01:11:15.863Z,37.60
2018-12-31T01:13:44.718Z,30.67
2018-12-31T01:16:13.784Z,38.37
2018-12-31T01:18:42.656Z,35.33
2018-12-31T01:21:11.676Z,36.93
2018-12-31T01:23:40.659Z,39.27
2018-12-31T01:26:09.594Z,35.10
2018-12-31T01:28:38.468Z,50.47
2018-12-31T01:31:07.396Z,44.43
2018-12-31T01:33:36.166Z,64.10
2018-12-31T01:36:05.014Z,38.80
2018-12-31T01:38:33.934Z,43.13
2018-12-31T01:41:02.890Z,44.30
2018-12-31T01:43:31.777Z,86.73
2018-12-31T01:46:00.754Z,38.77
2018-12-31T01:48:29.777Z,45.20
2018-12-31T01:50:58.663Z,44.47
2018-12-31T01:53:30.088Z,51.00
2018-12-31T01:55:58.968Z,38.90
2018-12-31T01:58:28.025Z,40.03
2018-12-31T02:00:56.993Z,41.70
2018-12-31T02:03:25.985Z,39.43
2018-12-31T02:05:55.032Z,57.67
2018-12-31T02:08:24.023Z,40.90
2018-12-31T02:10:53.074Z,40.67
2018-12-31T02:13:22.156Z,52.00
2018-12-31T02:15:51.172Z,57.57
2018-12-31T02:18:20.295Z,38.77
2018-12-31T02:20:49.353Z,33.03
2018-12-31T02:23:18.428Z,56.80
2018-12-31T02:25:47.425Z,34.13
2018-12-31T02:28:16.470Z,45.83
2018-12-31T02:30:45.554Z,41.40
2018-12-31T02:33:14.631Z,37.33
2018-12-31T02:35:43.603Z,51.20
2018-12-31T02:38:12.611Z,42.50
2018-12-31T02:40:41.643Z,46.43
2018-12-31T02:43:10.586Z,40.97
2018-12-31T02:45:39.500Z,48.13
2018-12-31T02:48:08.520Z,57.83
2018-12-31T02:50:37.489Z,54.93
2018-12-31T02:53:06.402Z,49.77
2018-12-31T02:55:35.401Z,35.50
2018-12-31T02:58:04.366Z,39.40
2018-12-31T03:00:33.622Z,35.30
2018-12-31T03:03:02.533Z,43.90
2018-12-31T03:05:31.381Z,33.13
2018-12-31T03:08:00.548Z,45.23
2018-12-31T03:10:29.761Z,52.80
2018-12-31T03:12:58.671Z,36.80
2018-12-31T03:15:27.751Z,46.57
2018-12-31T03:17:56.631Z,33.00
2018-12-31T03:20:25.586Z,33.60
2018-12-31T03:22:54.521Z,35.50
2018-12-31T03:25:23.542Z,36.27
2018-12-31T03:27:52.493Z,36.03
2018-12-31T03:30:21.462Z,34.83
2018-12-31T03:32:50.524Z,33.93
2018-12-31T03:35:19.598Z,34.83
2018-12-31T03:37:48.611Z,33.83
2018-12-31T03:40:17.512Z,35.30
2018-12-31T03:42:46.650Z,41.70
2018-12-31T03:45:15.820Z,29.53
2018-12-31T03:47:44.710Z,33.80
2018-12-31T03:50:13.656Z,34.30
2018-12-31T03:52:42.608Z,26.57
2018-12-31T03:55:11.679Z,31.93
2018-12-31T03:57:40.731Z,29.50
2018-12-31T04:00:09.633Z,34.20
2018-12-31T04:02:38.531Z,39.00
2018-12-31T04:05:07.500Z,38.40
2018-12-31T04:07:36.478Z,28.83
2018-12-31T04:10:05.451Z,33.83
2018-12-31T04:12:34.522Z,37.10
2018-12-31T04:15:03.461Z,49.80
2018-12-31T04:17:32.421Z,44.50
2018-12-31T04:20:01.363Z,44.63
2018-12-31T04:22:30.317Z,53.03
2018-12-31T04:24:59.161Z,75.93
2018-12-31T04:27:28.051Z,61.10
2018-12-31T04:29:56.916Z,38.43
2018-12-31T04:32:28.926Z,43.77
2018-12-31T04:34:57.993Z,36.87
2018-12-31T04:37:26.895Z,35.10
2018-12-31T04:39:55.860Z,34.67
2018-12-31T04:42:24.801Z,37.03
2018-12-31T04:44:53.698Z,32.30
2018-12-31T04:47:22.628Z,34.00
2018-12-31T04:49:51.674Z,35.67
2018-12-31T04:52:20.697Z,39.60
2018-12-31T04:54:49.656Z,36.57
2018-12-31T04:57:18.628Z,35.20
2018-12-31T04:59:47.649Z,31.53
2018-12-31T05:02:16.617Z,33.37
2018-12-31T05:04:45.681Z,32.27
2018-12-31T05:07:14.621Z,27.33
2018-12-31T05:09:43.654Z,31.87
2018-12-31T05:12:12.761Z,28.53
2018-12-31T05:14:41.861Z,31.00
2018-12-31T05:17:10.765Z,28.37
2018-12-31T05:19:39.781Z,28.60
2018-12-31T05:22:08.671Z,28.10
2018-12-31T05:24:37.582Z,32.77
2018-12-31T05:27:06.604Z,28.83
2018-12-31T05:29:35.640Z,39.47
2018-12-31T05:32:04.541Z,26.00
2018-12-31T05:34:33.611Z,30.30
2018-12-31T05:37:02.591Z,30.43
2018-12-31T05:39:31.460Z,26.17
2018-12-31T05:42:00.464Z,35.40
2018-12-31T05:44:29.471Z,24.93
2018-12-31T05:46:58.476Z,29.13
2018-12-31T05:49:27.482Z,29.70
2018-12-31T05:51:56.492Z,29.43
2018-12-31T05:54:25.504Z,22.63
2018-12-31T05:56:54.753Z,30.07
2018-12-31T05:59:23.670Z,26.30
2018-12-31T06:01:52.661Z,33.70
2018-12-31T06:04:21.711Z,31.47
2018-12-31T06:06:50.733Z,31.50
2018-12-31T06:09:19.599Z,29.17
2018-12-31T06:11:48.490Z,29.03
2018-12-31T06:14:17.389Z,30.27
2018-12-31T06:16:46.298Z,37.43
2018-12-31T06:19:15.249Z,31.10
2018-12-31T06:21:44.177Z,34.40
2018-12-31T06:24:13.043Z,37.20
2018-12-31T06:26:41.952Z,32.30
2018-12-31T06:29:10.859Z,28.63
2018-12-31T06:31:39.829Z,23.93
2018-12-31T06:34:08.735Z,30.57
2018-12-31T06:36:37.764Z,22.63
2018-12-31T06:39:08.269Z,20.17
2018-12-31T06:41:37.276Z,29.83
2018-12-31T06:44:06.185Z,22.27
2018-12-31T06:46:35.141Z,26.80
2018-12-31T06:49:04.055Z,27.87
2018-12-31T06:51:33.119Z,27.27
2018-12-31T06:54:02.017Z,27.27
2018-12-31T06:56:30.881Z,32.13
2018-12-31T06:59:00.523Z,27.10
2018-12-31T07:01:29.518Z,28.70
2018-12-31T07:03:58.330Z,31.50
2018-12-31T07:06:27.330Z,29.47
2018-12-31T07:08:56.360Z,27.73
2018-12-31T07:11:25.388Z,30.07
2018-12-31T07:13:54.269Z,24.40
2018-12-31T07:16:23.275Z,31.97
2018-12-31T07:18:52.357Z,30.43
2018-12-31T07:21:21.296Z,35.70
2018-12-31T07:23:50.339Z,31.37
2018-12-31T07:26:19.361Z,35.20
2018-12-31T07:28:48.279Z,34.93
2018-12-31T07:31:17.241Z,34.57
2018-12-31T07:33:46.231Z,38.63
2018-12-31T07:36:15.210Z,28.00
2018-12-31T07:38:44.163Z,34.93
2018-12-31T07:41:13.170Z,36.60
2018-12-31T07:43:42.129Z,37.37
2018-12-31T07:46:11.133Z,28.70
2018-12-31T07:48:40.085Z,37.33
2018-12-31T07:51:09.013Z,38.43
2018-12-31T07:53:38.815Z,31.80
2018-12-31T07:56:07.951Z,36.07
2018-12-31T07:58:36.903Z,34.93
2018-12-31T08:01:05.738Z,37.43
2018-12-31T08:03:34.716Z,41.50
2018-12-31T08:06:03.835Z,40.67
2018-12-31T08:08:32.698Z,46.43
2018-12-31T08:11:01.648Z,42.23
2018-12-31T08:13:30.590Z,34.40
2018-12-31T08:15:59.438Z,35.17
2018-12-31T08:18:28.375Z,39.83
2018-12-31T08:20:57.295Z,33.87
2018-12-31T08:23:26.281Z,40.67
2018-12-31T08:25:55.332Z,36.70
2018-12-31T08:28:24.351Z,48.80
2018-12-31T08:30:55.503Z,38.43
2018-12-31T08:33:24.459Z,44.83
2018-12-31T08:35:53.482Z,52.37
2018-12-31T08:38:22.264Z,54.20
2018-12-31T08:40:51.144Z,41.27
2018-12-31T08:43:20.078Z,48.90
2018-12-31T08:45:49.030Z,37.27
2018-12-31T08:48:17.919Z,42.80
2018-12-31T08:50:46.916Z,48.90
2018-12-31T08:53:15.877Z,47.17
2018-12-31T08:55:44.751Z,56.17
2018-12-31T08:58:13.640Z,54.20
2018-12-31T09:00:45.236Z,40.20
2018-12-31T09:03:22.796Z,41.80
2018-12-31T09:05:56.313Z,42.47
2018-12-31T09:08:25.677Z,36.23
2018-12-31T09:10:55.142Z,34.47
2018-12-31T09:13:24.635Z,34.27
2018-12-31T09:15:53.675Z,42.30
2018-12-31T09:18:22.816Z,36.43
2018-12-31T09:20:52.287Z,45.53
2018-12-31T09:23:21.621Z,34.17
2018-12-31T09:25:50.922Z,38.53
2018-12-31T09:28:20.008Z,38.13
2018-12-31T09:30:49.057Z,47.23
2018-12-31T09:33:18.119Z,40.50
2018-12-31T09:35:47.036Z,33.10
2018-12-31T09:38:16.209Z,37.23
2018-12-31T09:40:45.422Z,39.73
2018-12-31T09:43:14.532Z,37.67
2018-12-31T09:45:43.763Z,37.57
2018-12-31T09:48:12.967Z,30.07
2018-12-31T09:50:42.016Z,37.83
2018-12-31T09:53:12.579Z,33.87
2018-12-31T09:55:41.680Z,33.97
2018-12-31T09:58:10.868Z,32.37
2018-12-31T10:00:39.901Z,37.13
2018-12-31T10:03:08.873Z,37.57
2018-12-31T10:05:38.317Z,52.60
2018-12-31T10:08:07.267Z,41.10
2018-12-31T10:10:36.313Z,32.20
2018-12-31T10:13:05.343Z,32.83
2018-12-31T10:15:34.391Z,31.23
2018-12-31T10:18:03.507Z,33.17
2018-12-31T10:20:32.479Z,37.50
2018-12-31T10:23:01.524Z,31.33
2018-12-31T10:25:30.609Z,57.47
2018-12-31T10:27:59.852Z,37.47
2018-12-31T10:30:28.819Z,29.20
2018-12-31T10:32:57.773Z,23.97
2018-12-31T10:35:26.789Z,25.27
2018-12-31T10:37:55.828Z,27.23
2018-12-31T10:40:24.800Z,26.50
2018-12-31T10:42:53.785Z,25.63
2018-12-31T10:45:22.731Z,29.77
2018-12-31T10:47:51.662Z,67.60
2018-12-31T10:50:20.652Z,30.23
2018-12-31T10:52:49.641Z,89.77
2018-12-31T10:55:18.696Z,29.20
2018-12-31T10:57:47.797Z,49.67
2018-12-31T11:00:16.910Z,40.00
2018-12-31T11:02:45.921Z,38.47
2018-12-31T11:05:14.867Z,24.97
2018-12-31T11:07:43.923Z,18.87
2018-12-31T11:10:13.339Z,53.60
2018-12-31T11:12:42.375Z,58.93
2018-12-31T11:15:11.619Z,39.00
2018-12-31T11:17:40.834Z,37.03
2018-12-31T11:20:09.792Z,40.97
2018-12-31T11:22:38.919Z,42.53
2018-12-31T11:25:08.021Z,27.33
2018-12-31T11:27:37.358Z,27.70
2018-12-31T11:30:08.890Z,23.43
2018-12-31T11:32:38.242Z,20.80
2018-12-31T11:35:11.732Z,16.30
2018-12-31T11:37:44.961Z,14.30
2018-12-31T11:40:13.827Z,12.33
2018-12-31T11:42:43.260Z,17.23
2018-12-31T11:45:12.289Z,15.00
2018-12-31T11:47:42.249Z,15.27
2018-12-31T11:50:11.388Z,13.90
2018-12-31T11:52:53.710Z,17.83
2018-12-31T11:55:50.683Z,16.90
2018-12-31T11:58:22.388Z,13.60
2018-12-31T12:00:53.814Z,13.97
2018-12-31T12:03:22.903Z,13.30
2018-12-31T12:05:51.943Z,11.70
2018-12-31T12:08:21.254Z,10.63
2018-12-31T12:10:52.544Z,11.10
2018-12-31T12:13:24.840Z,11.37
2018-12-31T12:15:54.775Z,10.17
2018-12-31T12:18:23.796Z,13.30
2018-12-31T12:20:52.869Z,9.37
2018-12-31T12:23:22.276Z,10.03
2018-12-31T12:25:51.328Z,12.50
2018-12-31T12:28:20.532Z,11.10
2018-12-31T12:30:49.957Z,11.27
2018-12-31T12:33:19.245Z,15.73
2018-12-31T12:35:48.351Z,11.10
2018-12-31T12:38:17.896Z,9.17
2018-12-31T12:40:47.175Z,17.30
2018-12-31T12:43:16.534Z,14.07
2018-12-31T12:45:45.905Z,12.03
2018-12-31T12:48:17.108Z,13.27
2018-12-31T12:50:49.136Z,10.83
2018-12-31T12:53:18.275Z,14.47
2018-12-31T12:55:47.454Z,9.27
2018-12-31T12:58:20.327Z,8.50
2018-12-31T13:00:52.220Z,10.63
2018-12-31T13:03:21.435Z,21.77
2018-12-31T13:05:53.697Z,14.00
2018-12-31T13:08:23.034Z,12.80
2018-12-31T13:10:52.799Z,11.80
2018-12-31T13:13:22.027Z,11.20
2018-12-31T13:15:51.275Z,8.30
2018-12-31T13:18:20.285Z,7.87
2018-12-31T13:20:49.329Z,8.80
2018-12-31T13:23:18.489Z,7.63
2018-12-31T13:25:47.666Z,8.90
2018-12-31T13:28:20.873Z,9.73
2018-12-31T13:30:49.991Z,9.37
2018-12-31T13:33:20.995Z,5.57
2018-12-31T13:35:52.767Z,8.20
2018-12-31T13:38:22.911Z,10.00
2018-12-31T13:40:52.016Z,7.47
2018-12-31T13:43:21.317Z,10.43
2018-12-31T13:45:52.792Z,8.63
2018-12-31T13:48:26.069Z,8.30
2018-12-31T13:51:01.779Z,9.47
2018-12-31T13:53:32.307Z,7.83
2018-12-31T13:56:01.448Z,14.50
2018-12-31T13:58:32.550Z,6.80
2018-12-31T14:01:01.913Z,6.50
2018-12-31T14:03:34.222Z,7.37
2018-12-31T14:06:03.127Z,7.70
2018-12-31T14:08:32.591Z,11.60
2018-12-31T14:11:01.739Z,9.17
2018-12-31T14:13:33.365Z,12.80
2018-12-31T14:16:02.359Z,9.83
2018-12-31T14:18:31.676Z,8.50
2018-12-31T14:21:03.253Z,11.70
2018-12-31T14:23:37.188Z,16.73
2018-12-31T14:26:06.295Z,10.03
2018-12-31T14:28:35.831Z,9.30
2018-12-31T14:31:10.015Z,11.10
2018-12-31T14:33:39.155Z,11.53
2018-12-31T14:36:08.242Z,18.97
2018-12-31T14:38:38.924Z,12.83
2018-12-31T14:41:08.074Z,9.27
2018-12-31T14:43:39.206Z,10.10
2018-12-31T14:46:09.904Z,10.17
2018-12-31T14:48:45.086Z,9.83
2018-12-31T14:51:16.585Z,11.83
2018-12-31T14:53:45.893Z,10.37
2018-12-31T14:56:15.168Z,10.17
2018-12-31T14:58:44.660Z,10.00
2018-12-31T15:01:16.362Z,13.13
2018-12-31T15:03:45.576Z,12.47
2018-12-31T15:06:14.619Z,10.77
2018-12-31T15:08:43.779Z,11.67
2018-12-31T15:11:13.374Z,13.77
2018-12-31T15:13:42.614Z,16.87
2018-12-31T15:16:12.274Z,13.87
2018-12-31T15:18:41.788Z,14.67
2018-12-31T15:21:12.932Z,14.17
2018-12-31T15:23:43.962Z,15.33
2018-12-31T15:26:13.473Z,18.63
2018-12-31T15:28:44.594Z,14.60
2018-12-31T15:31:14.804Z,23.17
2018-12-31T15:33:43.745Z,14.93
2018-12-31T15:36:13.174Z,21.57
2018-12-31T15:38:42.379Z,16.73
2018-12-31T15:41:11.588Z,19.73
2018-12-31T15:43:40.902Z,20.80
2018-12-31T15:46:10.127Z,25.97
2018-12-31T15:48:39.382Z,27.63
2018-12-31T15:51:09.603Z,25.13
2018-12-31T15:53:39.113Z,39.07
2018-12-31T15:56:09.378Z,33.87
2018-12-31T15:58:38.972Z,20.90
2018-12-31T16:01:08.164Z,38.43
2018-12-31T16:03:37.752Z,99.33
2018-12-31T16:06:07.307Z,45.60
2018-12-31T16:08:37.265Z,260.13
2018-12-31T16:11:06.959Z,36.23
2018-12-31T16:13:36.551Z,30.40
2018-12-31T16:16:06.621Z,101.20
2018-12-31T16:18:36.023Z,26.43
2018-12-31T16:21:05.914Z,17.87
2018-12-31T16:23:35.390Z,15.93
2018-12-31T16:26:04.908Z,20.90
2018-12-31T16:28:34.619Z,19.27
2018-12-31T16:31:04.135Z,26.27
2018-12-31T16:33:33.500Z,33.33
2018-12-31T16:36:03.331Z,61.53
2018-12-31T16:38:32.638Z,49.30
2018-12-31T16:41:02.310Z,40.00
2018-12-31T16:43:31.724Z,53.70
2018-12-31T16:46:00.974Z,68.53
2018-12-31T16:48:30.221Z,72.97
2018-12-31T16:50:59.567Z,75.07
2018-12-31T16:53:28.763Z,104.53
2018-12-31T16:55:58.026Z,265.40
2018-12-31T16:58:27.456Z,85.10
2018-12-31T17:00:57.091Z,31.20
2018-12-31T17:03:28.773Z,30.20
2018-12-31T17:05:58.128Z,27.90
2018-12-31T17:08:30.049Z,45.00
2018-12-31T17:10:59.304Z,38.80
2018-12-31T17:13:28.551Z,40.30
2018-12-31T17:15:59.837Z,37.17
2018-12-31T17:18:28.917Z,28.10
2018-12-31T17:20:58.056Z,31.90
2018-12-31T17:23:27.255Z,31.60
2018-12-31T17:25:56.352Z,30.33
2018-12-31T17:28:25.445Z,26.53
2018-12-31T17:30:54.695Z,32.03
2018-12-31T17:33:23.817Z,34.17
2018-12-31T17:35:53.154Z,31.17
2018-12-31T17:38:22.557Z,32.00
2018-12-31T17:40:51.739Z,33.17
2018-12-31T17:43:20.866Z,30.37
2018-12-31T17:45:49.934Z,36.03
2018-12-31T17:48:19.536Z,29.00
2018-12-31T17:50:48.622Z,31.33
2018-12-31T17:53:17.764Z,35.20
2018-12-31T17:55:46.797Z,35.83
2018-12-31T17:58:15.849Z,35.30
2018-12-31T18:00:46.130Z,41.23
2018-12-31T18:03:14.967Z,36.67
2018-12-31T18:05:44.038Z,32.90
2018-12-31T18:08:13.177Z,36.30
2018-12-31T18:10:42.250Z,31.83
2018-12-31T18:13:11.258Z,32.03
2018-12-31T18:15:40.313Z,33.20
2018-12-31T18:18:09.519Z,32.03
2018-12-31T18:20:38.628Z,35.97
2018-12-31T18:23:07.680Z,33.90
2018-12-31T18:25:36.728Z,37.20
2018-12-31T18:28:05.787Z,37.37
2018-12-31T18:30:34.890Z,34.73
2018-12-31T18:33:03.915Z,51.23
2018-12-31T18:35:33.019Z,39.80
2018-12-31T18:38:02.052Z,30.70
2018-12-31T18:40:31.121Z,35.93
2018-12-31T18:43:00.194Z,37.37
2018-12-31T18:45:29.302Z,34.10
2018-12-31T18:47:58.349Z,36.77
2018-12-31T18:50:27.391Z,27.97
2018-12-31T18:52:56.338Z,28.40
2018-12-31T18:55:25.348Z,27.00
2018-12-31T18:57:54.300Z,28.27
2018-12-31T19:00:23.356Z,29.40
2018-12-31T19:02:52.391Z,26.60
2018-12-31T19:05:21.398Z,26.97
2018-12-31T19:07:50.424Z,27.67
2018-12-31T19:10:20.323Z,25.77
2018-12-31T19:12:49.569Z,30.50
2018-12-31T19:15:18.571Z,29.50
2018-12-31T19:17:47.483Z,28.70
2018-12-31T19:20:19.207Z,27.93
2018-12-31T19:22:48.319Z,35.23
2018-12-31T19:25:17.737Z,26.93
2018-12-31T19:27:47.230Z,40.47
2018-12-31T19:30:16.464Z,29.20
2018-12-31T19:32:45.481Z,32.40
2018-12-31T19:35:15.899Z,29.90
2018-12-31T19:37:44.980Z,34.37
2018-12-31T19:40:14.124Z,29.27
2018-12-31T19:42:43.298Z,35.10
2018-12-31T19:45:12.486Z,34.70
2018-12-31T19:47:41.459Z,33.10
2018-12-31T19:50:10.552Z,32.80
2018-12-31T19:52:39.972Z,33.10
2018-12-31T19:55:10.288Z,33.70
2018-12-31T19:57:39.404Z,53.70
2018-12-31T20:00:08.731Z,65.77
2018-12-31T20:02:38.105Z,101.87
2018-12-31T20:05:07.245Z,157.63
2018-12-31T20:07:36.519Z,127.77
2018-12-31T20:10:06.010Z,115.83
2018-12-31T20:12:35.112Z,60.87
2018-12-31T20:15:04.747Z,74.20
2018-12-31T20:17:34.038Z,101.17
2018-12-31T20:20:03.110Z,49.63
2018-12-31T20:22:32.302Z,48.40
2018-12-31T20:25:02.029Z,35.23
2018-12-31T20:27:31.094Z,27.77
2018-12-31T20:30:03.188Z,29.00
2018-12-31T20:32:32.354Z,35.60
2018-12-31T20:35:01.597Z,35.90
2018-12-31T20:37:31.845Z,32.13
2018-12-31T20:40:00.814Z,31.83
2018-12-31T20:42:29.946Z,36.53
2018-12-31T20:44:59.359Z,45.60
2018-12-31T20:47:28.440Z,35.97
2018-12-31T20:49:57.610Z,28.30
2018-12-31T20:52:26.934Z,32.77
2018-12-31T20:54:56.317Z,48.60
2018-12-31T20:57:26.089Z,30.93
2018-12-31T20:59:58.374Z,96.50
2018-12-31T21:02:28.019Z,72.73
2018-12-31T21:04:57.365Z,79.97
2018-12-31T21:07:26.875Z,60.63
2018-12-31T21:09:56.052Z,32.90
2018-12-31T21:12:25.304Z,46.20
2018-12-31T21:15:01.443Z,41.20
2018-12-31T21:17:30.438Z,65.10
2018-12-31T21:19:59.733Z,59.50
2018-12-31T21:22:28.920Z,75.70
2018-12-31T21:24:57.982Z,90.37
2018-12-31T21:27:27.280Z,69.73
2018-12-31T21:29:56.380Z,59.90
2018-12-31T21:32:25.480Z,61.50
2018-12-31T21:34:55.117Z,92.83
2018-12-31T21:37:24.328Z,85.53
2018-12-31T21:39:53.460Z,58.13
2018-12-31T21:42:22.755Z,43.10
2018-12-31T21:44:52.384Z,47.90
2018-12-31T21:47:21.514Z,35.00
2018-12-31T21:49:50.714Z,55.70
2018-12-31T21:52:19.997Z,39.03
2018-12-31T21:54:50.908Z,42.70
2018-12-31T21:57:25.131Z,47.43
2018-12-31T21:59:54.258Z,45.97
2018-12-31T22:02:27.077Z,41.87
2018-12-31T22:04:57.076Z,46.03
2018-12-31T22:07:26.118Z,45.73
2018-12-31T22:09:57.646Z,47.90
2018-12-31T22:12:26.859Z,43.40
2018-12-31T22:14:58.270Z,49.83
2018-12-31T22:17:28.122Z,44.03
2018-12-31T22:19:58.994Z,44.97
2018-12-31T22:22:29.486Z,48.87
2018-12-31T22:25:05.031Z,51.90
2018-12-31T22:27:34.543Z,52.83
2018-12-31T22:30:04.053Z,57.23
2018-12-31T22:32:46.984Z,62.93
2018-12-31T22:35:18.170Z,45.13
2018-12-31T22:37:50.629Z,47.10
2018-12-31T22:40:19.907Z,43.27
2018-12-31T22:42:48.989Z,47.73
2018-12-31T22:45:18.107Z,57.57
2018-12-31T22:47:47.575Z,52.50
2018-12-31T22:50:17.251Z,48.53
2018-12-31T22:52:46.949Z,46.17
2018-12-31T22:55:16.660Z,42.97
2018-12-31T22:57:46.137Z,55.70
2018-12-31T23:00:21.085Z,44.20
2018-12-31T23:02:50.270Z,871.57
2018-12-31T23:05:19.358Z,808.03
2018-12-31T23:07:49.986Z,1287.07
2018-12-31T23:10:19.106Z,1751.03
2018-12-31T23:12:48.327Z,1071.10
2018-12-31T23:15:21.174Z,796.00
2018-12-31T23:17:50.519Z,677.53
2018-12-31T23:20:19.540Z,468.50
2018-12-31T23:22:48.544Z,423.07
2018-12-31T23:25:17.791Z,341.43
2018-12-31T23:27:46.843Z,224.17
2018-12-31T23:30:15.891Z,170.37
2018-12-31T23:32:45.251Z,307.00
2018-12-31T23:35:15.705Z,234.40
2018-12-31T23:37:48.085Z,267.93
2018-12-31T23:40:17.158Z,353.93
2018-12-31T23:42:46.997Z,390.53
2018-12-31T23:45:16.334Z,303.83
2018-12-31T23:47:53.293Z,271.63
2018-12-31T23:50:24.486Z,383.63
2018-12-31T23:52:55.787Z,348.27
2018-12-31T23:55:25.936Z,170.90
2018-12-31T23:58:02.925Z,136.33
